Time;durP1;ratioP1;P1;durP2;ratioP2;P2;SDS_P1;SDS_P2;PMS_P1;PMS_P2;Temp;Humidity;BMP_temperature;BMP_pressure;BME280_temperature;BME280_humidity;BME280_pressure;Samples;Min_cycle;Max_cycle;Signal;HPM_P1;HPM_P2
2022/10/30 00:01:55;;;;;;;14.20;10.60;;;13.40;99.90;;;;;;5025470;28;20059;-60
2022/10/30 00:04:21;;;;;;;12.57;10.88;;;13.40;99.90;;;;;;5025338;28;20036;-59
2022/10/30 00:06:47;;;;;;;13.73;9.85;;;13.30;99.90;;;;;;5027167;28;20045;-60
2022/10/30 00:09:13;;;;;;;20.33;11.27;;;13.30;99.90;;;;;;5026990;28;20030;-60
2022/10/30 00:11:40;;;;;;;13.73;10.15;;;13.30;99.90;;;;;;5027561;28;20389;-61
2022/10/30 00:14:06;;;;;;;22.48;10.63;;;13.20;99.90;;;;;;5027346;28;20609;-61
2022/10/30 00:16:32;;;;;;;13.38;11.35;;;13.20;99.90;;;;;;5027553;28;20033;-60
2022/10/30 00:18:58;;;;;;;16.10;10.98;;;13.20;99.90;;;;;;5026962;28;20038;-61
2022/10/30 00:21:23;;;;;;;16.33;10.77;;;13.20;99.90;;;;;;5026706;28;20168;-60
2022/10/30 00:23:52;;;;;;;16.55;10.75;;;13.20;99.90;;;;;;5026844;28;20026;-62
2022/10/30 00:26:21;;;;;;;18.95;10.80;;;13.10;99.90;;;;;;5026506;28;20022;-61
2022/10/30 00:28:50;;;;;;;11.02;9.85;;;13.10;99.90;;;;;;5026575;28;20074;-60
2022/10/30 00:31:16;;;;;;;18.38;11.60;;;13.10;99.90;;;;;;5025480;28;20026;-60
2022/10/30 00:33:42;;;;;;;19.35;10.85;;;13.10;99.90;;;;;;5027339;28;20517;-61
2022/10/30 00:36:07;;;;;;;14.25;10.48;;;13.10;99.90;;;;;;5026193;28;20026;-59
2022/10/30 00:38:33;;;;;;;12.65;11.38;;;13.10;99.90;;;;;;5026661;28;20469;-62
2022/10/30 00:40:59;;;;;;;15.70;10.85;;;13.10;99.90;;;;;;5026243;28;20510;-60
2022/10/30 00:43:35;;;;;;;22.40;11.50;;;13.00;99.90;;;;;;5026847;28;20112;-62
2022/10/30 00:46:14;;;;;;;17.52;11.00;;;13.00;99.90;;;;;;5026842;28;20068;-60
2022/10/30 00:48:41;;;;;;;16.52;11.35;;;13.00;99.90;;;;;;5031174;28;20033;-61
2022/10/30 00:51:10;;;;;;;18.77;10.18;;;13.00;99.90;;;;;;5029763;28;20076;-60
2022/10/30 00:53:36;;;;;;;15.65;11.63;;;12.90;99.90;;;;;;5031164;28;20101;-59
2022/10/30 00:56:05;;;;;;;11.23;10.02;;;12.90;99.90;;;;;;5029428;28;20045;-60
2022/10/30 00:58:36;;;;;;;15.30;11.52;;;12.90;99.90;;;;;;5030562;28;20026;-59
2022/10/30 01:01:06;;;;;;;16.60;11.13;;;12.90;99.90;;;;;;5030534;28;20038;-60
2022/10/30 01:03:34;;;;;;;20.47;11.23;;;12.90;99.90;;;;;;5029603;28;20032;-60
2022/10/30 01:06:03;;;;;;;13.98;11.30;;;12.90;99.90;;;;;;5030078;28;20261;-61
2022/10/30 01:08:30;;;;;;;15.00;11.07;;;12.90;99.90;;;;;;5030407;28;20192;-60
2022/10/30 01:10:58;;;;;;;19.95;10.45;;;12.90;99.90;;;;;;5030168;28;20028;-61
2022/10/30 01:13:25;;;;;;;14.52;10.45;;;12.90;99.90;;;;;;5030054;28;20493;-60
2022/10/30 01:16:35;;;;;;;15.18;11.80;;;12.90;99.90;;;;;;5029998;28;20107;-61
2022/10/30 01:19:04;;;;;;;20.50;11.55;;;12.90;99.90;;;;;;5030070;28;20034;-60
2022/10/30 01:21:55;;;;;;;18.50;11.43;;;12.90;99.90;;;;;;5030033;28;20030;-61
2022/10/30 01:24:34;;;;;;;;;;;12.90;99.90;;;;;;5029805;28;20051;-61
2022/10/30 01:27:24;;;;;;;15.18;10.65;;;12.90;99.90;;;;;;5028280;28;19909;-61
2022/10/30 01:30:12;;;;;;;16.55;11.38;;;12.80;99.90;;;;;;5029296;28;20115;-60
2022/10/30 01:32:54;;;;;;;18.60;10.18;;;12.80;99.90;;;;;;5030047;28;20482;-61
2022/10/30 01:35:39;;;;;;;12.13;10.73;;;12.80;99.90;;;;;;5029403;28;20521;-61
2022/10/30 01:38:33;;;;;;;13.88;9.93;;;12.80;99.90;;;;;;5028153;28;20044;-62
2022/10/30 01:40:58;;;;;;;19.55;11.48;;;12.80;99.90;;;;;;5028674;28;20029;-60
2022/10/30 01:43:24;;;;;;;16.13;11.70;;;12.70;99.90;;;;;;5029633;28;20026;-60
2022/10/30 01:46:13;;;;;;;20.98;11.68;;;12.70;99.90;;;;;;5029766;28;20048;-60
2022/10/30 01:48:59;;;;;;;15.15;11.68;;;12.70;99.90;;;;;;5029492;28;20031;-60
2022/10/30 01:52:01;;;;;;;19.38;11.90;;;12.70;99.90;;;;;;5029279;28;20030;-60
2022/10/30 01:54:50;;;;;;;13.75;11.95;;;12.70;99.90;;;;;;5029634;28;20029;-61
2022/10/30 01:57:43;;;;;;;12.90;9.93;;;12.70;99.90;;;;;;5025064;28;20029;-60
2022/10/30 02:00:12;;;;;;;17.38;11.25;;;12.70;99.90;;;;;;5029801;28;20052;-62
2022/10/30 02:02:38;;;;;;;16.92;11.35;;;12.70;99.90;;;;;;5029902;28;20068;-59
2022/10/30 02:05:06;;;;;;;13.82;10.60;;;12.70;99.90;;;;;;5029464;28;20111;-60
2022/10/30 02:07:32;;;;;;;14.38;10.38;;;12.80;99.90;;;;;;5026935;28;20578;-59
2022/10/30 02:09:58;;;;;;;14.48;9.68;;;12.80;99.90;;;;;;5027893;28;20029;-59
2022/10/30 02:12:25;;;;;;;14.05;9.95;;;12.80;99.90;;;;;;5028659;28;20038;-59
2022/10/30 02:14:55;;;;;;;15.52;9.57;;;12.70;99.90;;;;;;5025712;28;20022;-59
2022/10/30 02:17:21;;;;;;;14.57;9.60;;;12.70;99.90;;;;;;5027655;28;20477;-59
2022/10/30 02:19:46;;;;;;;10.75;9.68;;;12.60;99.90;;;;;;5026419;28;20025;-59
2022/10/30 02:22:12;;;;;;;13.82;9.40;;;12.50;99.90;;;;;;5028632;28;20116;-59
2022/10/30 02:24:38;;;;;;;13.95;9.30;;;12.50;99.90;;;;;;5027668;28;20037;-60
2022/10/30 02:27:04;;;;;;;15.18;9.93;;;12.40;99.90;;;;;;5028788;28;20029;-61
2022/10/30 02:29:32;;;;;;;13.88;9.82;;;12.40;99.90;;;;;;5029556;28;20104;-60
2022/10/30 02:31:58;;;;;;;11.13;9.18;;;12.40;99.90;;;;;;5025646;28;20038;-59
2022/10/30 02:34:24;;;;;;;15.38;10.77;;;12.30;99.90;;;;;;5028172;28;20034;-59
2022/10/30 02:36:49;;;;;;;17.67;10.40;;;12.40;99.90;;;;;;5028319;28;20367;-59
2022/10/30 02:39:15;;;;;;;11.07;10.07;;;12.40;99.90;;;;;;5028899;28;20112;-60
2022/10/30 02:41:40;;;;;;;15.27;9.90;;;12.40;99.90;;;;;;5028903;28;20098;-60
2022/10/30 02:44:06;;;;;;;20.23;9.85;;;12.50;99.90;;;;;;5028532;28;20378;-61
2022/10/30 02:46:32;;;;;;;12.88;10.35;;;12.50;99.90;;;;;;5028450;28;20989;-60
2022/10/30 02:48:58;;;;;;;19.60;10.95;;;12.60;99.90;;;;;;5027848;28;20077;-59
2022/10/30 02:51:24;;;;;;;10.95;9.43;;;12.70;99.90;;;;;;5028490;28;20057;-60
2022/10/30 02:53:49;;;;;;;16.38;10.82;;;12.70;99.90;;;;;;5027527;28;20037;-60
2022/10/30 02:56:15;;;;;;;14.48;9.73;;;12.70;99.90;;;;;;5027804;28;20024;-62
2022/10/30 02:58:42;;;;;;;17.70;10.65;;;12.70;99.90;;;;;;5026966;28;20551;-60
2022/10/30 03:01:13;;;;;;;15.68;10.15;;;12.70;99.90;;;;;;5027557;28;20502;-59
2022/10/30 03:03:39;;;;;;;11.70;10.30;;;12.60;99.90;;;;;;5027530;28;20033;-60
2022/10/30 03:06:07;;;;;;;14.50;10.05;;;12.60;99.90;;;;;;5027519;28;20032;-61
2022/10/30 03:08:34;;;;;;;12.50;10.57;;;12.60;99.90;;;;;;5027199;28;20036;-60
2022/10/30 03:11:05;;;;;;;26.17;10.60;;;12.60;99.90;;;;;;5027204;28;20022;-62
2022/10/30 03:13:31;;;;;;;;;;;12.50;99.90;;;;;;5022807;28;20018;-61
2022/10/30 03:16:06;;;;;;;10.57;9.57;;;12.50;99.90;;;;;;5026248;28;19923;-59
2022/10/30 03:18:32;;;;;;;12.35;10.15;;;12.50;99.90;;;;;;5027951;28;20513;-59
2022/10/30 03:21:02;;;;;;;15.32;9.95;;;12.40;99.90;;;;;;5024036;28;20796;-61
2022/10/30 03:23:28;;;;;;;17.25;10.68;;;12.40;99.90;;;;;;5027123;28;20478;-60
2022/10/30 03:25:56;;;;;;;11.60;9.52;;;12.40;99.90;;;;;;5024672;28;20667;-60
2022/10/30 03:28:23;;;;;;;11.18;9.88;;;12.40;99.90;;;;;;5025952;28;20405;-59
2022/10/30 03:30:49;;;;;;;16.48;10.40;;;12.40;99.90;;;;;;5026920;28;20026;-61
2022/10/30 03:33:15;;;;;;;15.98;10.35;;;12.40;99.90;;;;;;5025211;28;20037;-60
2022/10/30 03:35:43;;;;;;;16.38;10.35;;;12.50;99.90;;;;;;5028149;28;20029;-59
2022/10/30 03:38:09;;;;;;;10.20;9.07;;;12.50;99.90;;;;;;5027474;28;20055;-59
2022/10/30 03:40:35;;;;;;;17.52;8.90;;;12.50;99.90;;;;;;5028184;28;20056;-61
2022/10/30 03:43:01;;;;;;;17.55;10.38;;;12.50;99.90;;;;;;5026934;28;20549;-61
2022/10/30 03:45:26;;;;;;;11.30;9.30;;;12.50;99.90;;;;;;5027753;28;20025;-61
2022/10/30 03:47:52;;;;;;;9.93;8.40;;;12.40;99.90;;;;;;5026826;28;20112;-60
2022/10/30 03:50:17;;;;;;;18.23;9.73;;;12.40;99.90;;;;;;5025960;28;20096;-60
2022/10/30 03:52:43;;;;;;;14.68;9.75;;;12.40;99.90;;;;;;5026543;28;20018;-59
2022/10/30 03:55:09;;;;;;;17.23;10.85;;;12.40;99.90;;;;;;5025743;28;20022;-59
2022/10/30 03:57:37;;;;;;;14.48;10.23;;;12.40;99.90;;;;;;5025518;28;20111;-60
2022/10/30 04:00:04;;;;;;;11.15;9.50;;;12.40;99.90;;;;;;5027474;28;20029;-61
2022/10/30 04:02:30;;;;;;;13.63;10.18;;;12.40;99.90;;;;;;5026885;28;20363;-59
2022/10/30 04:04:55;;;;;;;9.80;8.70;;;12.40;99.90;;;;;;5025276;28;20025;-60
2022/10/30 04:07:21;;;;;;;12.32;8.95;;;12.40;99.90;;;;;;5027222;28;20026;-60
2022/10/30 04:09:46;;;;;;;10.73;8.25;;;12.40;99.90;;;;;;5026742;28;20022;-59
2022/10/30 04:12:12;;;;;;;11.45;7.43;;;12.30;99.90;;;;;;5027405;28;20501;-59
2022/10/30 04:14:38;;;;;;;10.38;9.20;;;12.20;99.90;;;;;;5026125;28;20017;-60
2022/10/30 04:17:05;;;;;;;11.50;9.50;;;12.20;99.90;;;;;;5026838;28;20026;-61
2022/10/30 04:19:30;;;;;;;17.38;9.55;;;12.20;99.90;;;;;;5027429;28;20137;-60
2022/10/30 04:21:56;;;;;;;12.95;9.20;;;12.20;99.90;;;;;;5030595;28;20026;-61
2022/10/30 04:24:22;;;;;;;12.52;9.18;;;12.10;99.90;;;;;;5031705;28;20025;-59
2022/10/30 04:26:48;;;;;;;11.90;9.20;;;12.10;99.90;;;;;;5030812;28;20505;-60
2022/10/30 04:29:13;;;;;;;10.52;9.43;;;12.10;99.90;;;;;;5031168;28;20036;-59
2022/10/30 04:31:39;;;;;;;13.73;9.85;;;12.10;99.90;;;;;;5029097;28;20025;-60
2022/10/30 04:34:05;;;;;;;10.25;9.20;;;12.10;99.90;;;;;;5030739;28;20037;-61
2022/10/30 04:36:32;;;;;;;14.00;9.60;;;12.10;99.90;;;;;;5027841;28;20493;-59
2022/10/30 04:38:58;;;;;;;11.05;8.98;;;12.10;99.90;;;;;;5028944;28;20041;-60
2022/10/30 04:41:24;;;;;;;14.85;9.75;;;12.20;99.90;;;;;;5030142;28;20548;-59
2022/10/30 04:43:51;;;;;;;12.63;9.57;;;12.20;99.90;;;;;;5030296;28;20116;-61
2022/10/30 04:46:17;;;;;;;18.63;9.00;;;12.20;99.90;;;;;;5030615;28;20080;-59
2022/10/30 04:48:43;;;;;;;14.02;9.20;;;12.20;99.90;;;;;;5030194;28;20037;-59
2022/10/30 04:51:10;;;;;;;21.92;9.13;;;12.20;99.90;;;;;;5030504;28;20113;-59
2022/10/30 04:53:37;;;;;;;17.25;9.50;;;12.30;99.90;;;;;;5031459;28;20037;-60
2022/10/30 04:56:03;;;;;;;10.40;9.15;;;12.20;99.90;;;;;;5029507;28;20116;-59
2022/10/30 04:58:29;;;;;;;17.60;9.93;;;12.20;99.90;;;;;;5030164;28;20543;-59
2022/10/30 05:00:55;;;;;;;11.32;10.23;;;12.20;99.90;;;;;;5028256;28;20030;-58
2022/10/30 05:03:24;;;;;;;13.38;10.63;;;12.10;99.90;;;;;;5028531;28;20022;-60
2022/10/30 05:06:00;;;;;;;11.52;9.95;;;12.10;99.90;;;;;;5030164;28;20022;-61
2022/10/30 05:08:25;;;;;;;10.10;9.10;;;12.10;99.90;;;;;;5030972;28;20512;-60
2022/10/30 05:10:52;;;;;;;10.27;9.07;;;12.10;99.90;;;;;;5030471;28;20049;-60
2022/10/30 05:13:18;;;;;;;18.02;10.02;;;12.10;99.90;;;;;;5028773;28;20108;-60
2022/10/30 05:15:43;;;;;;;9.60;8.60;;;12.10;99.90;;;;;;5030798;28;20352;-60
2022/10/30 05:18:09;;;;;;;13.80;9.07;;;12.10;99.90;;;;;;5029216;28;20486;-60
2022/10/30 05:20:34;;;;;;;14.43;8.18;;;12.00;99.90;;;;;;5030636;28;20025;-59
2022/10/30 05:23:00;;;;;;;13.48;8.73;;;12.00;99.90;;;;;;5027633;28;20030;-60
2022/10/30 05:25:26;;;;;;;15.68;9.38;;;12.00;99.90;;;;;;5030266;28;20030;-59
2022/10/30 05:28:03;;;;;;;12.98;8.52;;;12.00;99.90;;;;;;5029206;28;20029;-60
2022/10/30 05:30:30;;;;;;;19.05;10.25;;;12.00;99.90;;;;;;5029811;28;20738;-60
2022/10/30 05:33:04;;;;;;;13.57;10.20;;;12.10;99.90;;;;;;5028581;28;20041;-59
2022/10/30 05:35:31;;;;;;;22.88;11.05;;;12.10;99.90;;;;;;5027122;28;20536;-60
2022/10/30 05:38:01;;;;;;;17.85;10.15;;;12.10;99.90;;;;;;5027852;28;20068;-59
2022/10/30 05:40:27;;;;;;;14.02;10.60;;;12.20;99.90;;;;;;5029639;28;20413;-59
2022/10/30 05:42:53;;;;;;;11.88;10.27;;;12.20;99.90;;;;;;5029568;28;20038;-59
2022/10/30 05:45:18;;;;;;;12.23;10.20;;;12.20;99.90;;;;;;5029154;28;20099;-59
2022/10/30 05:47:54;;;;;;;14.38;10.18;;;12.20;99.90;;;;;;5027969;28;20033;-60
2022/10/30 05:50:19;;;;;;;17.80;10.55;;;12.20;99.90;;;;;;5029195;28;20026;-59
2022/10/30 05:52:45;;;;;;;17.40;11.70;;;12.20;99.90;;;;;;5029265;28;20044;-60
2022/10/30 05:55:11;;;;;;;24.23;10.20;;;12.10;99.90;;;;;;5030040;28;20040;-60
2022/10/30 05:57:36;;;;;;;18.90;10.07;;;12.10;99.90;;;;;;5029230;28;20108;-59
2022/10/30 06:00:02;;;;;;;16.77;9.50;;;12.10;99.90;;;;;;5029478;28;20039;-59
2022/10/30 06:02:28;;;;;;;16.75;9.38;;;12.10;99.90;;;;;;5028878;28;20025;-60
2022/10/30 06:04:53;;;;;;;21.50;8.75;;;12.10;99.90;;;;;;5027314;28;20033;-60
2022/10/30 06:07:19;;;;;;;17.52;9.43;;;12.10;99.90;;;;;;5029367;28;20109;-59
2022/10/30 06:09:44;;;;;;;11.35;9.25;;;12.10;99.90;;;;;;5029231;28;20404;-60
2022/10/30 06:12:10;;;;;;;11.73;8.73;;;12.10;99.90;;;;;;5029222;28;20041;-59
2022/10/30 06:14:36;;;;;;;13.77;8.52;;;12.00;99.90;;;;;;5028692;28;20540;-61
2022/10/30 06:17:01;;;;;;;10.40;8.27;;;12.00;99.90;;;;;;5027495;28;20038;-60
2022/10/30 06:19:27;;;;;;;11.32;8.63;;;11.90;99.90;;;;;;5029167;28;20079;-60
2022/10/30 06:21:53;;;;;;;10.75;9.18;;;11.90;99.90;;;;;;5027516;28;20084;-59
2022/10/30 06:24:19;;;;;;;13.27;9.35;;;11.80;99.90;;;;;;5027949;28;20030;-58
2022/10/30 06:26:45;;;;;;;12.55;8.75;;;11.90;99.90;;;;;;5028578;28;20033;-59
2022/10/30 06:29:10;;;;;;;12.90;8.48;;;11.80;99.90;;;;;;5028555;28;20037;-60
2022/10/30 06:31:36;;;;;;;9.93;8.93;;;11.80;99.90;;;;;;5026041;28;20026;-59
2022/10/30 06:34:02;;;;;;;14.07;8.32;;;11.80;99.90;;;;;;5028044;28;20072;-60
2022/10/30 06:36:27;;;;;;;11.57;8.85;;;11.80;99.90;;;;;;5028034;28;20083;-61
2022/10/30 06:38:53;;;;;;;12.52;7.97;;;11.80;99.90;;;;;;5026559;28;20033;-60
2022/10/30 06:41:18;;;;;;;10.50;9.00;;;11.80;99.90;;;;;;5028533;28;20021;-59
2022/10/30 06:43:44;;;;;;;14.43;10.13;;;11.80;99.90;;;;;;5028926;28;20064;-60
2022/10/30 06:46:10;;;;;;;12.02;10.25;;;11.80;99.90;;;;;;5026221;28;20759;-60
2022/10/30 06:48:35;;;;;;;22.40;10.60;;;11.80;99.90;;;;;;5026723;28;20068;-60
2022/10/30 06:51:01;;;;;;;11.10;9.80;;;11.80;99.90;;;;;;5025991;28;20021;-61
2022/10/30 06:53:28;;;;;;;15.50;9.48;;;11.80;99.90;;;;;;5028511;28;20100;-61
2022/10/30 06:56:03;;;;;;;14.32;9.63;;;11.80;99.90;;;;;;5016132;28;20462;-59
2022/10/30 06:58:29;;;;;;;16.35;10.50;;;11.80;99.90;;;;;;5026667;28;20773;-58
2022/10/30 07:00:58;;;;;;;11.23;9.95;;;11.80;99.90;;;;;;5026267;28;20072;-60
2022/10/30 07:03:23;;;;;;;11.85;9.68;;;11.80;99.90;;;;;;5026164;28;20054;-60
2022/10/30 07:05:51;;;;;;;13.70;10.57;;;11.90;99.90;;;;;;5025889;28;20111;-59
2022/10/30 07:08:16;;;;;;;18.75;9.27;;;11.90;99.90;;;;;;5027238;28;20029;-59
2022/10/30 07:10:42;;;;;;;10.75;9.57;;;11.90;99.90;;;;;;5028322;28;20022;-61
2022/10/30 07:13:08;;;;;;;11.07;9.48;;;11.90;99.90;;;;;;5025500;28;20026;-58
2022/10/30 07:15:34;;;;;;;12.65;9.50;;;11.90;99.90;;;;;;5028772;28;20136;-58
2022/10/30 07:18:04;;;;;;;15.75;9.80;;;11.90;99.90;;;;;;5026194;28;20120;-58
2022/10/30 07:20:32;;;;;;;13.02;9.30;;;12.00;99.90;;;;;;5028806;28;20028;-59
2022/10/30 07:22:58;;;;;;;11.15;8.30;;;12.00;99.90;;;;;;5025692;28;20036;-60
2022/10/30 07:25:24;;;;;;;12.52;9.32;;;12.10;99.90;;;;;;5028511;28;20033;-60
2022/10/30 07:27:51;;;;;;;10.77;9.10;;;12.10;99.90;;;;;;5026114;28;20025;-60
2022/10/30 07:30:19;;;;;;;10.05;9.05;;;12.20;99.90;;;;;;5026173;28;20358;-61
2022/10/30 07:32:45;;;;;;;11.05;9.15;;;12.30;99.90;;;;;;5026402;28;20017;-59
2022/10/30 07:35:13;;;;;;;12.07;9.25;;;12.50;99.90;;;;;;5027832;28;20102;-60
2022/10/30 07:37:39;;;;;;;18.35;11.93;;;12.60;99.90;;;;;;5027938;28;20541;-60
2022/10/30 07:40:06;;;;;;;15.60;9.98;;;12.70;99.90;;;;;;5028066;28;20030;-60
2022/10/30 07:42:32;;;;;;;10.57;9.40;;;12.90;99.90;;;;;;5026685;28;20485;-60
2022/10/30 07:44:58;;;;;;;13.90;8.93;;;13.10;99.90;;;;;;5028284;28;20017;-60
2022/10/30 07:47:24;;;;;;;16.45;8.80;;;13.30;99.90;;;;;;5026361;28;20045;-59
2022/10/30 07:49:50;;;;;;;21.88;7.93;;;13.40;99.90;;;;;;5026265;28;20091;-58
2022/10/30 07:52:15;;;;;;;14.98;9.45;;;13.60;99.90;;;;;;5023941;28;20040;-59
2022/10/30 07:54:41;;;;;;;19.08;11.63;;;13.80;99.90;;;;;;5025376;28;20032;-60
2022/10/30 07:57:07;;;;;;;11.45;10.20;;;13.90;99.90;;;;;;5021076;28;20022;-59
2022/10/30 07:59:32;;;;;;;12.23;7.95;;;14.10;99.90;;;;;;5028270;28;20029;-59
2022/10/30 08:02:02;;;;;;;11.20;7.57;;;14.30;99.90;;;;;;5026861;28;20033;-59
2022/10/30 08:04:27;;;;;;;8.75;6.40;;;14.40;99.90;;;;;;5027750;28;20046;-59
2022/10/30 08:06:53;;;;;;;10.05;6.28;;;14.40;99.90;;;;;;5025635;28;20021;-60
2022/10/30 08:09:19;;;;;;;13.90;7.53;;;14.50;99.90;;;;;;5025196;28;20038;-59
2022/10/30 08:11:44;;;;;;;8.52;6.93;;;14.50;99.90;;;;;;5027457;28;20029;-59
2022/10/30 08:14:10;;;;;;;12.57;6.57;;;14.50;99.90;;;;;;5027815;28;20021;-60
2022/10/30 08:16:35;;;;;;;9.93;7.47;;;14.60;99.90;;;;;;5027041;28;20452;-60
2022/10/30 08:19:01;;;;;;;13.75;6.88;;;14.60;99.90;;;;;;5025892;28;20103;-60
2022/10/30 08:21:27;;;;;;;9.48;7.28;;;14.70;99.90;;;;;;5027379;28;20045;-60
2022/10/30 08:23:52;;;;;;;19.85;7.82;;;14.70;99.90;;;;;;5027147;28;20033;-59
2022/10/30 08:26:18;;;;;;;12.73;7.63;;;14.70;99.90;;;;;;5027126;28;20033;-59
2022/10/30 08:28:43;;;;;;;15.70;7.63;;;14.80;99.90;;;;;;5027188;28;20033;-59
2022/10/30 08:31:09;;;;;;;10.43;7.35;;;14.90;99.90;;;;;;5026709;28;20501;-60
2022/10/30 08:33:35;;;;;;;8.93;7.28;;;14.90;99.90;;;;;;5027744;28;20057;-60
2022/10/30 08:36:01;;;;;;;8.60;6.57;;;14.90;99.90;;;;;;5024842;28;20105;-60
2022/10/30 08:38:27;;;;;;;8.07;7.10;;;14.90;99.90;;;;;;5027142;28;20032;-60
2022/10/30 08:40:53;;;;;;;16.10;7.75;;;14.90;99.90;;;;;;5024295;28;20030;-60
2022/10/30 08:43:19;;;;;;;12.30;6.68;;;14.90;99.90;;;;;;5026206;28;20076;-59
2022/10/30 08:45:45;;;;;;;10.50;7.05;;;15.00;99.90;;;;;;5025293;28;20025;-59
2022/10/30 08:48:13;;;;;;;12.57;8.25;;;15.10;99.90;;;;;;5027006;28;20126;-59
2022/10/30 08:50:39;;;;;;;10.48;7.65;;;15.30;99.90;;;;;;5026628;28;20096;-58
2022/10/30 08:53:07;;;;;;;9.23;7.88;;;15.40;99.90;;;;;;5027253;28;20136;-59
2022/10/30 08:55:34;;;;;;;16.80;7.50;;;15.50;99.90;;;;;;5027298;28;20040;-60
2022/10/30 08:58:00;;;;;;;14.18;6.63;;;15.70;99.90;;;;;;5025529;28;20061;-61
2022/10/30 09:00:27;;;;;;;16.33;6.57;;;16.20;99.90;;;;;;5025799;28;20096;-59
2022/10/30 09:02:53;;;;;;;13.75;6.10;;;16.70;99.90;;;;;;5027156;28;20413;-60
2022/10/30 09:05:19;;;;;;;7.70;5.82;;;17.20;99.90;;;;;;5027652;28;20014;-60
2022/10/30 09:07:45;;;;;;;12.57;6.20;;;17.70;99.90;;;;;;5028616;28;20109;-60
2022/10/30 09:10:11;;;;;;;17.00;6.25;;;18.20;99.90;;;;;;5026397;28;20033;-60
2022/10/30 09:12:37;;;;;;;12.63;5.93;;;18.70;99.90;;;;;;5030199;28;20390;-61
2022/10/30 09:15:03;;;;;;;10.65;5.38;;;19.10;99.90;;;;;;5028445;28;20654;-60
2022/10/30 09:17:29;;;;;;;10.07;5.90;;;19.70;99.90;;;;;;5030455;28;20024;-61
2022/10/30 09:19:54;;;;;;;8.15;5.28;;;20.10;99.90;;;;;;5030508;28;20025;-61
2022/10/30 09:22:20;;;;;;;7.65;4.57;;;20.30;99.90;;;;;;5029761;28;20021;-60
2022/10/30 09:24:46;;;;;;;7.97;5.25;;;20.80;99.90;;;;;;5030697;28;20095;-61
2022/10/30 09:27:11;;;;;;;7.63;4.32;;;20.90;99.90;;;;;;5029026;28;20500;-60
2022/10/30 09:29:37;;;;;;;11.35;5.30;;;21.20;99.90;;;;;;5031377;28;20026;-61
2022/10/30 09:32:07;;;;;;;7.05;4.53;;;21.50;99.90;;;;;;5029789;28;20104;-61
2022/10/30 09:34:33;;;;;;;8.27;4.72;;;21.70;99.90;;;;;;5027752;28;20040;-62
2022/10/30 09:36:59;;;;;;;7.78;4.60;;;21.90;99.90;;;;;;5029391;28;20029;-61
2022/10/30 09:39:24;;;;;;;6.40;4.60;;;22.40;99.90;;;;;;5028039;28;20040;-61
2022/10/30 09:42:19;;;;;;;11.77;5.47;;;22.40;99.90;;;;;;5030552;28;20025;-60
2022/10/30 09:45:08;;;;;;;7.05;4.65;;;22.20;99.90;;;;;;5026193;28;20029;-61
2022/10/30 09:47:47;;;;;;;9.57;4.43;;;22.30;99.90;;;;;;5028998;28;20029;-61
2022/10/30 09:50:27;;;;;;;10.75;4.50;;;22.20;99.90;;;;;;5027850;28;20120;-61
2022/10/30 09:53:11;;;;;;;9.02;4.60;;;22.20;99.90;;;;;;5028416;28;20061;-61
2022/10/30 09:55:44;;;;;;;13.98;5.13;;;21.90;99.90;;;;;;5027776;28;20026;-61
2022/10/30 09:58:12;;;;;;;7.93;5.43;;;21.80;99.90;;;;;;5029431;28;20037;-61
2022/10/30 10:00:47;;;;;;;9.68;4.72;;;21.80;99.90;;;;;;5026897;28;20549;-61
2022/10/30 10:03:24;;;;;;;9.50;5.25;;;21.80;99.90;;;;;;5029388;28;20040;-61
2022/10/30 10:05:58;;;;;;;14.40;4.55;;;21.70;99.90;;;;;;5027583;28;20116;-61
2022/10/30 10:08:43;;;;;;;9.60;4.75;;;21.70;99.90;;;;;;5028149;28;20057;-62
2022/10/30 10:11:24;;;;;;;10.85;4.63;;;21.70;99.90;;;;;;5027945;28;20041;-61
2022/10/30 10:14:00;;;;;;;11.90;5.53;;;21.60;99.90;;;;;;5025799;28;20036;-61
2022/10/30 10:16:34;;;;;;;10.05;5.28;;;21.60;99.90;;;;;;5027908;28;20036;-61
2022/10/30 10:19:11;;;;;;;7.18;4.55;;;21.40;99.90;;;;;;5026890;28;20025;-60
2022/10/30 10:21:46;;;;;;;11.93;6.15;;;21.50;99.90;;;;;;5027949;28;20112;-61
2022/10/30 10:24:23;;;;;;;7.72;4.47;;;21.60;99.90;;;;;;5028068;28;20029;-61
2022/10/30 10:26:53;;;;;;;10.95;5.07;;;21.50;99.90;;;;;;5029393;28;20509;-61
2022/10/30 10:29:52;;;;;;;9.27;4.33;;;21.60;99.90;;;;;;5026020;28;20116;-61
2022/10/30 10:32:53;;;;;;;6.88;4.40;;;21.30;99.90;;;;;;5028271;28;20272;-60
2022/10/30 10:35:48;;;;;;;12.88;4.65;;;21.40;99.90;;;;;;5026755;28;20029;-61
2022/10/30 10:38:22;;;;;;;8.13;4.75;;;21.40;99.90;;;;;;5027282;28;20042;-62
2022/10/30 10:41:14;;;;;;;15.90;5.57;;;21.60;99.90;;;;;;5027886;28;20167;-62
2022/10/30 10:44:10;;;;;;;13.55;4.68;;;21.60;99.90;;;;;;5022612;28;20038;-60
2022/10/30 10:46:50;;;;;;;18.25;5.05;;;21.60;99.90;;;;;;5024246;28;20686;-61
2022/10/30 10:49:36;;;;;;;8.02;4.85;;;21.50;99.90;;;;;;5028054;28;20555;-60
2022/10/30 10:52:11;;;;;;;10.25;4.47;;;21.50;99.90;;;;;;5026613;28;20026;-61
2022/10/30 10:54:59;;;;;;;9.65;4.55;;;21.60;99.90;;;;;;5028215;28;20032;-62
2022/10/30 10:57:31;;;;;;;15.02;4.93;;;21.90;99.90;;;;;;5028549;28;20025;-61
2022/10/30 11:00:28;;;;;;;9.65;4.82;;;22.00;99.90;;;;;;5027251;28;20013;-61
2022/10/30 11:03:08;;;;;;;7.28;5.05;;;22.00;99.90;;;;;;5018317;28;20030;-61
2022/10/30 11:05:49;;;;;;;12.95;5.43;;;21.90;99.90;;;;;;5026377;28;20080;-60
2022/10/30 11:08:25;;;;;;;17.38;5.18;;;21.80;99.90;;;;;;5027518;28;20030;-61
2022/10/30 11:10:57;;;;;;;11.55;4.28;;;21.80;99.90;;;;;;5026347;28;20540;-60
2022/10/30 11:13:27;;;;;;;8.30;4.57;;;21.80;99.90;;;;;;5026943;28;20036;-60
2022/10/30 11:16:20;;;;;;;8.07;4.70;;;21.70;99.90;;;;;;5026683;28;20060;-61
2022/10/30 11:18:49;;;;;;;10.95;5.07;;;21.60;99.90;;;;;;5027717;28;20022;-60
2022/10/30 11:21:20;;;;;;;8.73;4.65;;;21.50;99.90;;;;;;5026857;28;20125;-62
2022/10/30 11:23:48;;;;;;;11.07;3.85;;;21.50;99.90;;;;;;5026439;28;20034;-61
2022/10/30 11:26:16;;;;;;;7.60;4.18;;;21.60;99.90;;;;;;5016030;28;20018;-61
2022/10/30 11:29:05;;;;;;;11.48;4.95;;;21.50;99.90;;;;;;5026035;28;20041;-60
2022/10/30 11:31:33;;;;;;;9.15;4.63;;;21.60;99.90;;;;;;5027491;28;20087;-60
2022/10/30 11:34:17;;;;;;;7.78;4.32;;;21.70;99.90;;;;;;5027532;28;20025;-61
2022/10/30 11:36:51;;;;;;;6.95;4.57;;;21.90;99.90;;;;;;5027277;28;20045;-60
2022/10/30 11:39:26;;;;;;;9.27;4.55;;;21.80;99.90;;;;;;5025770;28;20068;-60
2022/10/30 11:42:09;;;;;;;12.10;4.93;;;21.90;99.90;;;;;;5028072;28;20024;-60
2022/10/30 11:44:49;;;;;;;9.15;4.45;;;22.00;99.90;;;;;;5027740;28;20013;-60
2022/10/30 11:47:16;;;;;;;10.05;4.90;;;22.10;99.90;;;;;;5026144;28;20057;-61
2022/10/30 11:49:43;;;;;;;14.63;4.95;;;22.10;99.90;;;;;;5026961;28;20130;-59
2022/10/30 11:52:11;;;;;;;7.93;4.43;;;22.10;99.90;;;;;;5027931;28;20033;-58
2022/10/30 11:54:43;;;;;;;10.07;4.80;;;22.10;99.90;;;;;;5026635;28;20040;-60
2022/10/30 11:57:31;;;;;;;7.68;4.55;;;22.30;99.90;;;;;;5026508;28;20513;-61
2022/10/30 11:59:57;;;;;;;10.20;4.53;;;22.50;99.90;;;;;;5025782;28;20025;-60
2022/10/30 12:02:28;;;;;;;11.73;4.85;;;22.60;99.90;;;;;;5027140;28;20099;-60
2022/10/30 12:04:59;;;;;;;16.08;4.60;;;22.60;99.90;;;;;;5026908;28;20048;-61
2022/10/30 12:07:32;;;;;;;18.40;5.43;;;22.70;99.90;;;;;;5027265;28;20041;-59
2022/10/30 12:09:58;;;;;;;11.40;4.70;;;22.90;99.90;;;;;;5027366;28;20064;-60
2022/10/30 12:12:26;;;;;;;8.57;5.28;;;23.00;99.90;;;;;;5026277;28;20022;-61
2022/10/30 12:14:52;;;;;;;8.40;4.53;;;22.90;99.90;;;;;;5027220;28;20055;-60
2022/10/30 12:17:20;;;;;;;7.72;4.55;;;22.90;99.90;;;;;;5025751;28;20017;-60
2022/10/30 12:19:53;;;;;;;9.95;4.38;;;22.80;99.90;;;;;;5026686;28;20025;-60
2022/10/30 12:22:25;;;;;;;9.73;5.68;;;22.90;99.90;;;;;;5026337;28;20022;-60
2022/10/30 12:24:51;;;;;;;8.85;5.07;;;23.00;99.90;;;;;;5025449;28;20038;-60
2022/10/30 12:27:17;;;;;;;10.23;4.85;;;23.00;99.90;;;;;;5027365;28;20034;-60
2022/10/30 12:30:14;;;;;;;14.20;5.85;;;23.00;99.90;;;;;;5027245;28;20046;-60
2022/10/30 12:32:55;;;;;;;9.85;4.68;;;23.00;99.90;;;;;;5026751;28;20386;-61
2022/10/30 12:35:51;;;;;;;12.63;4.88;;;22.90;99.90;;;;;;5025664;28;20100;-60
2022/10/30 12:38:38;;;;;;;8.75;5.20;;;22.90;99.90;;;;;;5002956;28;20033;-59
2022/10/30 12:41:18;;;;;;;11.00;4.82;;;22.90;99.90;;;;;;5026163;28;20116;-60
2022/10/30 12:43:57;;;;;;;8.90;4.50;;;22.80;99.90;;;;;;5029287;28;20396;-60
2022/10/30 12:46:22;;;;;;;12.15;5.15;;;22.70;99.90;;;;;;5029318;28;20042;-60
2022/10/30 12:48:55;;;;;;;10.45;4.97;;;22.60;99.90;;;;;;5031258;28;20517;-60
2022/10/30 12:51:34;;;;;;;8.65;4.72;;;22.60;99.90;;;;;;5030800;28;20371;-61